Wiscasset, ME

11:12 PM EDT on May 28, 2015 (GMT -0400)
Acorn Road | | Change Station
CLOSE
Current Station
Personal Weather Station
Location: Wiscasset, ME
Elevation: 144 ft
Nearby Weather Stations

Elev 144 ft 44.00 °N, 69.70 °W | Updated 16 seconds ago

Mostly Cloudy
Mostly Cloudy
63.7 °F
Feels Like 63.7 °F
N
0.0
Wind Variable Wind from WNW
Gusts 0.0 mph

Today
High -- | Low -- °F
--% Chance of Precip.
Yesterday
High -- | Low -- °F
Precip. -- in
5:01 AM 8:11 PM
Waxing Gibbous, 80% visible
Pressure 30.16 in
Visibility 10.0 miles
Clouds Mostly Cloudy 8500 ft
Dew Point 63 °F
Humidity 97%
Rainfall 0.70 in
Snow Depth Not available.
UV 0 out of 12
Pollen 8.90 out of 12
Air Quality Not available.
Flu Activity Local Activity
METAR KIWI 290253Z AUTO 00000KT 10SM BKN085 18/17 A3016 RMK AO2 SLP213 T01780172 53014

More Conditions Fewer Conditions

Pressure 30.16 in
Visibility 10.0 miles
Clouds Mostly Cloudy 8500 ft
Dew Point 63 °F
Humidity 97%
Rainfall 0.70 in
Snow Depth Not available.
UV 0 out of 12
Pollen 8.90 out of 12
Air Quality Not available.
Flu Activity Local Activity
METAR KIWI 290253Z AUTO 00000KT 10SM BKN085 18/17 A3016 RMK AO2 SLP213 T01780172 53014

More Conditions Fewer Conditions

10-Day Weather Forecast

Almanac

Astronomy

May. 28, 2015 Rise Set
Actual Time
Civil Twilight
Nautical Twilight
Astronomical Twilight
Moon
Length of Visible Light
Length of Day
Tomorrow will be .
, % of the Moon is Illuminated

Today's Extremes

State Highs State Lows

Community

WunderPhotos

Upload Photos

1,825,153 photos uploaded!

WunderBlogs® & News

Nearby

Air Quality

  Air Quality AQ Index Pollutant
Not available.

Snow Depth

Station Depth Elevation

Earthquake Activity

City Distance Mag. Time & Date
Minimum magnitude displayed is 2.5.

Coastal Water Temperatures

Place Temperature

Stations

Nearby Weather Stations

Station Location Temp. Windchill Dew Point Humidity Wind Precip. Elev Updated Type